createdAt,value
2018-05-04T00:36:54.248Z,85.88
2018-05-04T00:39:23.221Z,86.19
2018-05-04T00:41:51.773Z,86.08
2018-05-04T00:44:20.369Z,86.12
2018-05-04T00:46:48.961Z,86.30
2018-05-04T00:49:29.956Z,86.41
2018-05-04T00:51:58.544Z,86.50
2018-05-04T00:54:27.137Z,86.66
2018-05-04T00:56:55.788Z,86.81
2018-05-04T00:59:24.857Z,86.86
2018-05-04T01:01:54.111Z,86.97
2018-05-04T01:04:22.705Z,86.81
2018-05-04T01:06:51.404Z,86.88
2018-05-04T01:09:20.214Z,86.81
2018-05-04T01:11:48.857Z,86.82
2018-05-04T01:14:17.482Z,86.85
2018-05-04T01:16:46.850Z,86.58
2018-05-04T01:19:15.612Z,86.25
2018-05-04T01:21:44.975Z,85.92
2018-05-04T01:24:13.600Z,85.20
2018-05-04T01:26:48.006Z,84.69
2018-05-04T01:29:17.187Z,84.72
2018-05-04T01:31:46.545Z,84.84
2018-05-04T01:34:15.224Z,84.73
2018-05-04T01:36:44.737Z,84.53
2018-05-04T01:39:13.494Z,84.32
2018-05-04T01:41:42.249Z,84.24
2018-05-04T01:44:10.923Z,83.95
2018-05-04T01:50:01.301Z,83.93
2018-05-04T01:52:30.179Z,84.02
2018-05-04T01:54:59.709Z,84.24
2018-05-04T01:57:28.454Z,84.37
2018-05-04T01:59:57.220Z,84.21
2018-05-04T02:02:26.706Z,83.91
2018-05-04T02:04:56.108Z,83.60
2018-05-04T02:07:25.038Z,82.88
2018-05-04T02:09:53.597Z,82.99
2018-05-04T02:15:51.465Z,83.20
2018-05-04T02:18:28.178Z,83.48
2018-05-04T02:21:04.018Z,83.69
2018-05-04T02:23:33.492Z,83.64
2018-05-04T02:26:02.159Z,83.76
2018-05-04T02:28:30.762Z,83.75
2018-05-04T02:30:59.599Z,83.87
2018-05-04T02:33:34.278Z,83.75
2018-05-04T02:36:02.964Z,83.44
2018-05-04T02:38:31.613Z,83.27
2018-05-04T02:41:01.169Z,82.93
2018-05-04T02:43:30.205Z,82.86
2018-05-04T02:45:59.333Z,82.49
2018-05-04T02:48:28.081Z,81.97
2018-05-04T02:51:00.305Z,81.87
2018-05-04T02:53:29.017Z,81.47
2018-05-04T02:55:57.622Z,81.55
2018-05-04T02:58:26.176Z,81.85
2018-05-04T03:00:54.803Z,82.07
2018-05-04T03:03:48.210Z,82.10
2018-05-04T03:06:16.905Z,81.74
2018-05-04T03:11:43.363Z,82.34
2018-05-04T03:14:12.138Z,82.10
2018-05-04T03:16:40.793Z,81.82
2018-05-04T03:19:09.523Z,81.27
2018-05-04T03:21:39.107Z,79.84
2018-05-04T03:24:07.727Z,79.82
2018-05-04T03:26:51.082Z,79.38
2018-05-04T03:29:19.754Z,79.40
2018-05-04T03:31:48.344Z,79.98
2018-05-04T03:34:16.963Z,80.01
2018-05-04T03:36:46.401Z,80.39
2018-05-04T03:42:32.237Z,81.86
2018-05-04T03:45:02.009Z,82.32
2018-05-04T03:47:40.538Z,82.60
2018-05-04T03:50:09.122Z,82.82
2018-05-04T03:52:37.778Z,83.37
2018-05-04T03:55:06.415Z,83.75
2018-05-04T04:01:06.276Z,84.93
2018-05-04T04:03:52.852Z,85.35
2018-05-04T04:06:21.605Z,85.60
2018-05-04T04:08:50.282Z,85.60
2018-05-04T04:11:18.938Z,85.89
2018-05-04T04:16:43.604Z,86.17
2018-05-04T04:19:12.185Z,86.44
2018-05-04T04:21:48.342Z,86.74
2018-05-04T04:24:17.712Z,86.73
2018-05-04T04:26:46.367Z,86.64
2018-05-04T04:29:23.836Z,86.84
2018-05-04T04:31:53.034Z,87.10
2018-05-04T04:34:22.038Z,87.15
2018-05-04T04:36:50.660Z,87.09
2018-05-04T04:39:19.468Z,87.19
2018-05-04T04:41:48.213Z,87.31
2018-05-04T04:44:16.888Z,87.58
2018-05-04T04:46:45.521Z,87.70
2018-05-04T04:49:14.076Z,87.76
2018-05-04T04:51:42.828Z,87.79
2018-05-04T04:54:11.558Z,87.97
2018-05-04T05:09:51.887Z,88.46
2018-05-04T05:12:21.385Z,88.56
2018-05-04T05:14:50.144Z,88.59
2018-05-04T05:17:19.604Z,88.36
2018-05-04T05:19:48.337Z,88.14
2018-05-04T06:44:15.322Z,88.15
2018-05-04T06:46:44.009Z,88.12
2018-05-04T06:49:12.705Z,88.25
2018-05-04T06:51:41.249Z,87.74
2018-05-04T06:54:10.005Z,87.54
2018-05-04T06:56:42.002Z,87.69
2018-05-04T06:59:11.580Z,87.58
2018-05-04T07:01:40.693Z,87.50
2018-05-04T07:04:21.266Z,87.43
2018-05-04T07:06:50.262Z,86.77
2018-05-04T07:09:19.009Z,86.63
2018-05-04T07:11:47.901Z,86.27
2018-05-04T07:14:18.033Z,86.42
2018-05-04T07:16:47.030Z,85.83
2018-05-04T07:19:16.194Z,86.00
2018-05-04T07:21:45.546Z,85.94
2018-05-04T07:24:15.610Z,85.70
2018-05-04T07:26:44.520Z,85.25
2018-05-04T07:29:13.547Z,84.82
2018-05-04T07:31:42.229Z,84.50
2018-05-04T07:34:27.811Z,83.87
2018-05-04T07:36:57.660Z,83.83
2018-05-04T07:39:30.389Z,83.85
2018-05-04T07:41:59.586Z,83.03
2018-05-04T07:44:28.599Z,82.40
2018-05-04T07:46:57.305Z,80.70
2018-05-04T07:49:26.003Z,79.90
2018-05-04T07:52:06.653Z,79.26
2018-05-04T07:54:36.729Z,79.75
2018-05-04T08:09:01.348Z,78.59
2018-05-04T08:11:30.111Z,78.44
2018-05-04T08:13:58.758Z,78.13
2018-05-04T08:16:27.890Z,77.78
2018-05-04T08:18:57.254Z,77.51
2018-05-04T08:21:26.248Z,77.59
2018-05-04T08:23:55.663Z,77.37
2018-05-04T08:26:25.259Z,75.03
2018-05-04T08:29:09.866Z,74.28
2018-05-04T08:31:39.043Z,72.37
2018-05-04T08:34:07.969Z,73.43
2018-05-04T08:36:37.262Z,73.73
2018-05-04T08:51:12.353Z,73.17
2018-05-04T08:53:41.585Z,72.88
2018-05-04T08:56:10.537Z,70.79
2018-05-04T08:58:40.100Z,71.39
2018-05-04T09:01:08.876Z,69.45
2018-05-04T09:03:39.735Z,67.76
2018-05-04T09:06:09.176Z,66.22
2018-05-04T09:08:38.933Z,66.22
2018-05-04T09:23:03.180Z,62.19
2018-05-04T09:25:31.878Z,60.27
2018-05-04T09:28:00.584Z,56.65
2018-05-04T09:30:30.118Z,50.47
2018-05-04T09:32:58.832Z,47.36
2018-05-04T09:35:27.581Z,43.22
2018-05-04T09:37:58.280Z,43.69
2018-05-04T09:40:26.941Z,44.36
2018-05-04T09:42:55.829Z,45.96
2018-05-04T09:45:26.491Z,44.74
2018-05-04T10:38:57.589Z,46.10
2018-05-04T10:41:28.229Z,47.43
2018-05-04T10:43:57.228Z,49.51
2018-05-04T10:46:26.174Z,49.82
2018-05-04T10:48:55.034Z,52.62
2018-05-04T10:51:23.591Z,52.97
2018-05-04T10:53:52.596Z,53.29
2018-05-04T10:56:22.681Z,52.07
2018-05-04T10:58:52.183Z,51.46
2018-05-04T11:01:21.812Z,52.74
2018-05-04T11:03:51.282Z,54.21
2018-05-04T11:06:20.081Z,55.40
2018-05-04T11:08:50.397Z,57.14
2018-05-04T11:11:19.964Z,56.90
2018-05-04T11:13:48.793Z,58.60
2018-05-04T11:16:24.354Z,62.75
2018-05-04T11:18:56.378Z,65.67
2018-05-04T11:21:26.343Z,71.87
2018-05-04T11:23:55.163Z,77.52
2018-05-04T11:26:23.863Z,76.68
2018-05-04T11:28:52.907Z,79.82
2018-05-04T11:31:22.557Z,80.38
2018-05-04T11:33:51.539Z,79.26
2018-05-04T11:36:20.754Z,79.39
2018-05-04T11:38:49.579Z,79.79
2018-05-04T11:41:18.431Z,75.45
2018-05-04T11:44:01.841Z,66.85
2018-05-04T11:46:30.608Z,67.99
2018-05-04T11:52:08.162Z,65.62
2018-05-04T11:54:36.901Z,66.07
2018-05-04T11:57:06.455Z,68.78
2018-05-04T11:59:35.193Z,71.16
2018-05-04T12:02:06.028Z,70.67
2018-05-04T13:25:32.103Z,77.17
2018-05-04T13:28:01.022Z,76.45
2018-05-04T13:30:30.680Z,73.82
2018-05-04T13:32:59.568Z,74.82
2018-05-04T13:35:28.241Z,73.96
2018-05-04T13:38:08.321Z,74.67
2018-05-04T13:40:37.898Z,75.12
2018-05-04T13:45:44.148Z,77.94
2018-05-04T13:48:12.883Z,78.97
2018-05-04T13:50:41.551Z,81.22
2018-05-04T13:53:10.187Z,80.75
2018-05-04T13:55:39.221Z,80.84
2018-05-04T13:58:10.115Z,80.15
2018-05-04T14:00:40.537Z,79.87
2018-05-04T14:03:09.417Z,79.64
2018-05-04T14:05:38.531Z,79.09
2018-05-04T14:08:08.084Z,78.30
2018-05-04T14:10:36.938Z,78.04
2018-05-04T14:13:06.470Z,77.71
2018-05-04T14:15:35.211Z,76.51
2018-05-04T14:18:04.076Z,77.03
2018-05-04T14:20:54.133Z,79.54
2018-05-04T14:23:22.829Z,79.06
2018-05-04T14:25:51.717Z,77.60
2018-05-04T14:28:20.547Z,80.15
2018-05-04T14:30:50.342Z,82.50
2018-05-04T14:33:19.068Z,83.34
2018-05-04T14:35:47.698Z,83.41
2018-05-04T14:38:16.855Z,83.62
2018-05-04T14:40:47.403Z,82.86
2018-05-04T14:43:16.841Z,81.34
2018-05-04T14:45:46.112Z,80.65
2018-05-04T14:48:16.064Z,84.68
2018-05-04T14:50:45.762Z,86.11
2018-05-04T14:53:15.009Z,86.46
2018-05-04T14:55:50.876Z,87.37
2018-05-04T14:58:19.841Z,87.35
2018-05-04T15:00:49.387Z,88.18
2018-05-04T15:03:19.743Z,88.04
2018-05-04T15:05:48.873Z,88.21
2018-05-04T15:08:17.995Z,88.84
2018-05-04T15:10:47.080Z,88.48
2018-05-04T15:13:16.112Z,87.99
2018-05-04T15:15:44.984Z,88.14
2018-05-04T15:18:13.921Z,88.11
2018-05-04T15:20:42.822Z,87.92
2018-05-04T15:23:12.723Z,87.47
2018-05-04T15:25:41.644Z,87.90
2018-05-04T15:28:10.732Z,88.11
2018-05-04T15:30:40.434Z,88.23
2018-05-04T15:33:10.254Z,88.29
2018-05-04T15:35:39.328Z,87.94
2018-05-04T15:38:10.138Z,88.06
2018-05-04T15:40:38.788Z,87.94
2018-05-04T15:43:07.532Z,88.74
2018-05-04T15:45:36.253Z,88.64
2018-05-04T15:48:10.619Z,88.67
2018-05-04T15:50:45.671Z,89.15
2018-05-04T15:53:16.988Z,89.20
2018-05-04T15:55:45.956Z,88.64
2018-05-04T15:58:15.938Z,88.91
2018-05-04T16:00:44.754Z,89.95
2018-05-04T16:03:13.531Z,89.88
2018-05-04T16:05:42.371Z,90.22
2018-05-04T16:08:11.443Z,89.84
2018-05-04T16:10:40.188Z,89.78
2018-05-04T16:13:09.423Z,89.15
2018-05-04T16:15:38.852Z,89.00
2018-05-04T16:18:08.483Z,87.82
2018-05-04T16:20:38.848Z,88.16
2018-05-04T16:23:11.938Z,87.83
2018-05-04T16:25:40.645Z,86.60
2018-05-04T16:28:11.945Z,86.24
2018-05-04T16:30:40.943Z,86.54
2018-05-04T16:33:10.247Z,86.77
2018-05-04T16:35:40.440Z,86.82
2018-05-04T16:38:09.134Z,86.79
2018-05-04T16:40:39.187Z,87.05
2018-05-04T16:43:08.218Z,87.09
2018-05-04T16:45:37.670Z,87.43
2018-05-04T16:48:12.329Z,87.37
2018-05-04T16:50:41.435Z,87.65
2018-05-04T16:53:10.884Z,88.51
2018-05-04T16:55:40.729Z,88.27
2018-05-04T16:58:10.230Z,88.72
2018-05-04T17:00:41.938Z,88.73
2018-05-04T17:03:11.681Z,88.63
2018-05-04T17:05:41.551Z,88.43
2018-05-04T17:08:11.171Z,88.80
2018-05-04T17:10:40.524Z,89.35
2018-05-04T17:13:09.452Z,89.61
2018-05-04T17:15:39.057Z,90.67
2018-05-04T17:18:07.938Z,91.06
2018-05-04T17:20:37.337Z,90.86
2018-05-04T17:23:06.499Z,91.01
2018-05-04T17:25:36.453Z,91.30
2018-05-04T17:28:05.306Z,91.39
2018-05-04T17:30:34.246Z,91.43
2018-05-04T17:33:03.764Z,91.49
2018-05-04T17:35:33.098Z,91.58
2018-05-04T17:38:03.027Z,91.53
2018-05-04T17:40:32.393Z,91.43
2018-05-04T17:43:01.406Z,91.17
2018-05-04T17:45:30.294Z,91.01
2018-05-04T17:47:59.268Z,91.15
2018-05-04T17:50:28.333Z,91.24
2018-05-04T17:52:57.020Z,91.43
2018-05-04T17:55:25.738Z,91.44
2018-05-04T17:57:55.201Z,91.28
2018-05-04T18:00:24.642Z,91.41
2018-05-04T18:02:53.369Z,91.54
2018-05-04T18:05:22.279Z,91.46
2018-05-04T18:07:51.847Z,91.63
2018-05-04T18:10:20.946Z,91.37
2018-05-04T18:12:49.753Z,91.38
2018-05-04T18:15:18.405Z,91.25
2018-05-04T18:17:47.815Z,91.44
2018-05-04T18:20:16.535Z,91.59
2018-05-04T18:22:45.312Z,91.59
2018-05-04T18:25:14.443Z,91.78
2018-05-04T18:27:43.179Z,91.93
2018-05-04T18:30:11.934Z,91.92
2018-05-04T18:32:41.064Z,91.66
2018-05-04T18:35:09.768Z,91.48
2018-05-04T18:37:38.819Z,91.48
2018-05-04T18:40:08.800Z,91.51
2018-05-04T18:42:38.047Z,91.31
2018-05-04T18:45:06.716Z,91.47
2018-05-04T18:47:36.013Z,91.64
2018-05-04T18:50:04.999Z,91.80
2018-05-04T18:52:33.612Z,91.85
2018-05-04T18:55:02.517Z,91.95
2018-05-04T18:57:31.577Z,91.87
2018-05-04T19:00:00.467Z,91.58
2018-05-04T19:02:50.397Z,91.49
2018-05-04T19:05:20.870Z,91.45
2018-05-04T19:07:49.837Z,91.27
2018-05-04T19:10:18.753Z,91.15
2018-05-04T19:12:47.896Z,91.25
2018-05-04T19:15:16.629Z,91.38
2018-05-04T19:17:46.116Z,91.44
2018-05-04T19:20:15.349Z,91.47
2018-05-04T19:22:45.574Z,91.69
2018-05-04T19:25:14.842Z,91.65
2018-05-04T19:27:44.754Z,91.68
2018-05-04T19:30:13.646Z,91.64
2018-05-04T19:32:42.460Z,91.76
2018-05-04T19:35:11.257Z,91.74
2018-05-04T19:37:40.038Z,91.72
2018-05-04T19:40:09.044Z,91.68
2018-05-04T19:42:37.911Z,91.77
2018-05-04T19:45:07.332Z,91.90
2018-05-04T19:47:36.469Z,91.91
2018-05-04T19:50:05.037Z,91.87
2018-05-04T19:52:34.782Z,91.89
2018-05-04T19:55:05.304Z,91.89
2018-05-04T19:57:37.780Z,91.87
2018-05-04T20:00:06.893Z,91.96
2018-05-04T20:02:36.601Z,92.03
2018-05-04T20:05:05.320Z,92.06
2018-05-04T20:07:37.599Z,92.10
2018-05-04T20:10:07.298Z,92.15
2018-05-04T20:12:36.224Z,92.28
2018-05-04T20:15:05.638Z,92.27
2018-05-04T20:17:34.990Z,92.24
2018-05-04T20:20:04.544Z,92.38
2018-05-04T20:22:33.278Z,92.50
2018-05-04T20:25:02.318Z,92.58
2018-05-04T20:27:31.084Z,92.67
2018-05-04T20:30:00.262Z,92.68
2018-05-04T20:32:30.085Z,92.78
2018-05-04T20:34:58.766Z,92.81
2018-05-04T20:37:28.112Z,92.86
2018-05-04T20:39:57.137Z,92.92
2018-05-04T20:42:26.733Z,93.00
2018-05-04T20:44:55.590Z,93.07
2018-05-04T20:47:25.396Z,93.08
2018-05-04T20:49:54.661Z,93.11
2018-05-04T20:52:23.401Z,93.07
2018-05-04T20:54:52.094Z,93.12
2018-05-04T20:57:20.819Z,93.19
2018-05-04T20:59:49.576Z,93.22
2018-05-04T21:02:18.215Z,93.22
2018-05-04T21:04:48.202Z,93.24
2018-05-04T21:07:16.980Z,93.27
2018-05-04T21:09:48.932Z,93.30
2018-05-04T21:12:18.837Z,93.27
2018-05-04T21:14:49.565Z,93.33
2018-05-04T21:17:18.554Z,93.41
2018-05-04T21:19:50.688Z,93.39
2018-05-04T21:22:20.602Z,93.41
2018-05-04T21:24:49.836Z,93.49
2018-05-04T21:27:19.894Z,93.45
2018-05-04T21:29:50.504Z,93.43
2018-05-04T21:32:19.205Z,93.45
2018-05-04T21:34:47.942Z,93.46
2018-05-04T21:37:16.639Z,93.57
2018-05-04T21:39:46.315Z,93.59
2018-05-04T21:42:15.493Z,93.61
2018-05-04T21:44:44.525Z,93.61
2018-05-04T21:47:14.220Z,93.65
2018-05-04T21:49:42.957Z,93.66
2018-05-04T21:52:12.240Z,93.66
2018-05-04T21:54:42.469Z,93.62
2018-05-04T21:57:11.847Z,93.61
2018-05-04T21:59:41.834Z,93.58
2018-05-04T22:02:10.653Z,93.60
2018-05-04T22:04:39.347Z,93.58
2018-05-04T22:07:08.125Z,93.60
2018-05-04T22:09:37.845Z,93.65
2018-05-04T22:12:06.872Z,93.71
2018-05-04T22:14:35.442Z,93.73
2018-05-04T22:17:04.124Z,93.74
2018-05-04T22:19:32.931Z,93.81
2018-05-04T22:22:01.710Z,93.84
2018-05-04T22:24:31.127Z,93.86
2018-05-04T22:26:59.757Z,93.92
2018-05-04T22:29:28.540Z,93.96
2018-05-04T22:31:57.862Z,93.96
2018-05-04T22:34:27.241Z,93.98
2018-05-04T22:36:55.820Z,94.00
2018-05-04T22:39:25.033Z,93.99
2018-05-04T22:41:54.420Z,94.01
2018-05-04T22:44:23.321Z,94.04
2018-05-04T22:46:51.941Z,94.04
2018-05-04T22:49:20.530Z,94.06
2018-05-04T22:51:49.187Z,94.09
2018-05-04T22:54:17.869Z,94.11
2018-05-04T22:56:47.288Z,94.12
2018-05-04T22:59:16.763Z,94.13
2018-05-04T23:01:45.505Z,94.12
2018-05-04T23:04:14.401Z,94.13
2018-05-04T23:06:43.386Z,94.14
2018-05-04T23:09:12.168Z,94.19
2018-05-04T23:11:41.488Z,94.20
2018-05-04T23:14:10.796Z,94.18
2018-05-04T23:16:39.697Z,94.18
2018-05-04T23:19:08.340Z,94.19
2018-05-04T23:21:36.975Z,94.22
2018-05-04T23:24:05.542Z,94.29
2018-05-04T23:26:34.972Z,94.31
2018-05-04T23:29:03.670Z,94.32
2018-05-04T23:31:33.030Z,94.35
2018-05-04T23:34:01.679Z,94.38
2018-05-04T23:36:30.314Z,94.41
2018-05-04T23:38:58.951Z,94.44
2018-05-04T23:41:28.464Z,94.46
2018-05-04T23:43:57.337Z,94.48
2018-05-04T23:46:27.283Z,94.52
2018-05-04T23:48:56.728Z,94.62
2018-05-04T23:51:25.676Z,94.59
2018-05-04T23:53:54.323Z,94.55
2018-05-04T23:56:23.820Z,94.59
2018-05-04T23:58:52.553Z,94.59
